Terminal Aerodrome Forecast
Issued by NWS

Home | Current Version | Previous Version | Graphics & Text | Print | Product List | Glossary On
Versions: 1 2 3 4 5 6 7 8 9 10 11 12 13 14 15 16 17 18 19 20 21 22 23 24
000
FTUS43 KGRB 230500
TAFCWA
TAF
KCWA 230536Z 2306/2406 VRB03KT 3SM BR SCT007 BKN015
      TEMPO 2306/2308 1SM BR BKN007
     FM230800 10003KT 2SM BR BKN004
      TEMPO 2308/2312 1/2SM FG OVC002
     FM231400 10006KT 4SM BR OVC005
     FM231600 10008KT 6SM BR BKN015
     FM231900 10006KT P6SM BKN030
     FM240100 11005KT 6SM BR BKN012
      AMD LTD TO CLD VIS AND WIND TIL 231200=

USA.gov is the U.S. government's official web portal to all federal, state and local government web resources and services.